createdAt,value
2023-02-14T00:01:26.623Z,20.92
2023-02-14T00:03:54.720Z,24.17
2023-02-14T00:06:22.306Z,23.17
2023-02-14T00:08:52.390Z,23.00
2023-02-14T00:11:21.001Z,19.73
2023-02-14T00:14:07.322Z,21.17
2023-02-14T00:16:35.010Z,22.02
2023-02-14T00:19:05.852Z,19.60
2023-02-14T00:21:38.820Z,18.38
2023-02-14T00:24:12.396Z,19.52
2023-02-14T00:26:40.412Z,18.38
2023-02-14T00:29:22.436Z,18.98
2023-02-14T00:31:51.748Z,19.48
2023-02-14T00:34:20.015Z,20.48
2023-02-14T00:36:48.397Z,19.80
2023-02-14T00:39:18.930Z,20.75
2023-02-14T00:41:46.762Z,19.42
2023-02-14T00:44:14.604Z,21.50
2023-02-14T00:46:42.345Z,20.23
2023-02-14T00:49:10.350Z,18.30
2023-02-14T00:51:39.806Z,19.58
2023-02-14T00:54:07.525Z,22.65
2023-02-14T00:56:35.480Z,25.63
2023-02-14T00:59:03.174Z,26.15
2023-02-14T01:01:31.521Z,22.60
2023-02-14T01:03:59.908Z,21.08
2023-02-14T01:06:27.777Z,26.73
2023-02-14T01:08:58.110Z,27.42
2023-02-14T01:11:26.956Z,28.52
2023-02-14T01:13:57.221Z,30.00
2023-02-14T01:16:28.300Z,27.10
2023-02-14T01:18:58.409Z,26.90
2023-02-14T01:21:30.310Z,27.45
2023-02-14T01:24:02.000Z,26.48
2023-02-14T01:26:30.644Z,26.45
2023-02-14T01:29:03.995Z,26.60
2023-02-14T01:31:34.433Z,22.88
2023-02-14T01:34:03.118Z,21.75
2023-02-14T01:36:38.142Z,20.05
2023-02-14T01:39:14.044Z,21.05
2023-02-14T01:41:43.996Z,19.60
2023-02-14T01:44:14.680Z,22.80
2023-02-14T01:46:45.340Z,21.30
2023-02-14T01:49:19.326Z,23.42
2023-02-14T01:51:56.022Z,21.40
2023-02-14T01:54:27.080Z,19.42
2023-02-14T01:56:59.519Z,20.75
2023-02-14T01:59:37.430Z,21.42
2023-02-14T02:02:06.317Z,23.42
2023-02-14T02:04:39.498Z,21.73
2023-02-14T02:07:13.787Z,20.15
2023-02-14T02:09:51.882Z,19.92
2023-02-14T02:12:19.998Z,20.55
2023-02-14T02:14:51.230Z,20.85
2023-02-14T02:17:33.890Z,20.08
2023-02-14T02:20:34.148Z,20.83
2023-02-14T02:23:48.216Z,20.98
2023-02-14T02:26:54.181Z,20.50
2023-02-14T02:29:42.063Z,19.37
2023-02-14T02:32:46.600Z,19.08
2023-02-14T02:35:42.131Z,19.55
2023-02-14T02:38:18.767Z,22.58
2023-02-14T02:41:07.783Z,24.98
2023-02-14T02:44:03.680Z,23.63
2023-02-14T02:46:51.459Z,22.10
2023-02-14T02:50:00.292Z,21.15
2023-02-14T02:53:03.766Z,21.50
2023-02-14T02:56:19.614Z,22.45
2023-02-14T02:59:18.461Z,22.95
2023-02-14T03:02:07.098Z,20.25
2023-02-14T03:04:53.916Z,20.63
2023-02-14T03:07:35.973Z,20.83
2023-02-14T03:13:31.906Z,21.17
2023-02-14T03:16:25.995Z,22.13
2023-02-14T03:19:14.864Z,22.25
2023-02-14T03:21:58.520Z,22.27
2023-02-14T03:24:42.233Z,23.63
2023-02-14T03:27:14.136Z,23.65
2023-02-14T03:30:20.062Z,23.55
2023-02-14T03:33:13.688Z,24.80
2023-02-14T03:36:03.650Z,25.45
2023-02-14T03:38:39.487Z,27.20
2023-02-14T03:41:16.002Z,24.85
2023-02-14T03:43:49.852Z,25.67
2023-02-14T03:46:45.728Z,24.80
2023-02-14T03:49:20.196Z,26.52
2023-02-14T03:51:51.350Z,26.75
2023-02-14T03:54:22.070Z,25.90
2023-02-14T03:57:20.843Z,24.60
2023-02-14T03:59:48.882Z,25.67
2023-02-14T04:02:34.071Z,26.75
2023-02-14T04:05:08.741Z,25.30
2023-02-14T04:07:47.598Z,25.83
2023-02-14T04:10:16.797Z,26.58
2023-02-14T04:12:44.647Z,25.77
2023-02-14T04:15:13.656Z,25.33
2023-02-14T04:18:00.141Z,26.83
2023-02-14T04:20:28.737Z,26.52
2023-02-14T04:22:56.678Z,28.52
2023-02-14T04:25:24.507Z,29.83
2023-02-14T04:27:52.233Z,26.98
2023-02-14T04:30:22.752Z,28.60
2023-02-14T04:32:50.682Z,29.20
2023-02-14T04:35:18.479Z,28.58
2023-02-14T04:37:46.152Z,27.77
2023-02-14T04:40:17.241Z,29.98
2023-02-14T04:42:46.300Z,29.33
2023-02-14T04:45:14.498Z,26.75
2023-02-14T04:47:42.214Z,26.27
2023-02-14T04:50:10.481Z,24.10
2023-02-14T04:52:38.640Z,24.58
2023-02-14T04:55:07.250Z,24.35
2023-02-14T04:57:34.979Z,25.20
2023-02-14T05:00:03.817Z,25.17
2023-02-14T05:02:31.835Z,24.70
2023-02-14T05:04:59.465Z,24.25
2023-02-14T05:07:27.207Z,23.05
2023-02-14T05:09:54.900Z,22.83
2023-02-14T05:15:19.926Z,24.55
2023-02-14T05:17:47.656Z,22.73
2023-02-14T05:20:15.578Z,22.95
2023-02-14T05:22:43.395Z,21.40
2023-02-14T05:25:10.998Z,23.30
2023-02-14T05:27:38.702Z,22.95
2023-02-14T05:30:07.358Z,24.80
2023-02-14T05:32:35.092Z,21.98
2023-02-14T05:35:03.213Z,21.23
2023-02-14T05:37:30.849Z,23.30
2023-02-14T05:39:58.557Z,22.45
2023-02-14T05:42:26.186Z,21.90
2023-02-14T05:44:53.936Z,21.95
2023-02-14T05:47:21.572Z,23.20
2023-02-14T05:49:49.240Z,24.05
2023-02-14T05:52:17.071Z,23.33
2023-02-14T05:54:44.848Z,25.52
2023-02-14T05:57:12.480Z,23.73
2023-02-14T05:59:40.198Z,22.10
2023-02-14T06:02:07.920Z,21.35
2023-02-14T06:04:35.739Z,18.90
2023-02-14T06:07:03.543Z,19.45
2023-02-14T06:09:31.380Z,19.83
2023-02-14T06:11:59.074Z,19.27
2023-02-14T06:14:26.910Z,19.13
2023-02-14T06:16:54.631Z,20.45
2023-02-14T06:19:22.514Z,21.70
2023-02-14T06:21:50.191Z,20.48
2023-02-14T06:24:17.910Z,19.88
2023-02-14T06:26:45.506Z,20.15
2023-02-14T06:29:13.162Z,20.05
2023-02-14T06:31:40.958Z,19.08
2023-02-14T06:34:09.097Z,19.48
2023-02-14T06:36:36.916Z,17.88
2023-02-14T06:39:04.934Z,15.60
2023-02-14T06:41:32.565Z,15.10
2023-02-14T06:44:00.320Z,14.32
2023-02-14T06:46:28.068Z,13.40
2023-02-14T06:48:55.779Z,13.27
2023-02-14T06:51:23.512Z,13.27
2023-02-14T06:53:51.225Z,9.25
2023-02-14T06:56:18.820Z,9.88
2023-02-14T06:58:46.553Z,10.88
2023-02-14T07:01:14.193Z,12.52
2023-02-14T07:03:42.592Z,13.38
2023-02-14T07:06:10.329Z,16.83
2023-02-14T07:08:37.999Z,21.15
2023-02-14T07:11:05.771Z,19.73
2023-02-14T07:13:33.648Z,19.25
2023-02-14T07:16:01.310Z,19.30
2023-02-14T07:18:29.072Z,19.58
2023-02-14T07:20:56.886Z,20.05
2023-02-14T07:23:24.534Z,19.92
2023-02-14T07:25:52.240Z,21.42
2023-02-14T07:28:19.942Z,21.48
2023-02-14T07:30:47.943Z,18.35
2023-02-14T07:33:15.852Z,17.85
2023-02-14T07:35:43.553Z,17.83
2023-02-14T07:38:11.166Z,18.27
2023-02-14T07:40:38.867Z,18.88
2023-02-14T07:43:08.055Z,19.27
2023-02-14T07:45:35.785Z,19.08
2023-02-14T07:48:04.343Z,20.02
2023-02-14T07:50:32.091Z,20.02
2023-02-14T07:52:59.875Z,23.63
2023-02-14T07:55:27.578Z,24.98
2023-02-14T07:57:55.254Z,25.70
2023-02-14T08:00:23.353Z,25.77
2023-02-14T08:02:51.007Z,25.00
2023-02-14T08:05:19.076Z,28.83
2023-02-14T08:07:46.765Z,34.75
2023-02-14T08:10:15.317Z,34.10
2023-02-14T08:13:01.280Z,31.08
2023-02-14T08:18:19.083Z,26.60
2023-02-14T08:20:50.853Z,28.85
2023-02-14T08:23:19.937Z,29.08
2023-02-14T08:25:51.701Z,28.65
2023-02-14T08:28:21.914Z,28.45
2023-02-14T08:30:50.192Z,29.27
2023-02-14T08:33:18.837Z,29.38
2023-02-14T08:35:46.907Z,30.55
2023-02-14T08:38:14.568Z,30.02
2023-02-14T08:40:42.804Z,30.27
2023-02-14T08:43:11.160Z,31.25
2023-02-14T08:45:39.695Z,29.55
2023-02-14T08:48:11.513Z,31.60
2023-02-14T08:50:40.383Z,29.98
2023-02-14T08:53:13.518Z,31.45
2023-02-14T08:55:41.403Z,31.58
2023-02-14T08:58:09.175Z,31.92
2023-02-14T09:00:36.907Z,30.55
2023-02-14T09:03:04.755Z,31.02
2023-02-14T09:05:33.954Z,31.17
2023-02-14T09:08:03.342Z,31.55
2023-02-14T09:10:31.121Z,31.30
2023-02-14T09:12:58.775Z,28.95
2023-02-14T09:15:26.596Z,30.80
2023-02-14T09:17:54.373Z,30.48
2023-02-14T09:20:22.357Z,32.35
2023-02-14T09:22:50.001Z,31.70
2023-02-14T09:25:17.966Z,31.67
2023-02-14T09:27:45.695Z,29.42
2023-02-14T09:30:14.257Z,31.70
2023-02-14T09:32:41.860Z,29.98
2023-02-14T09:35:28.100Z,31.23
2023-02-14T09:37:55.828Z,32.50
2023-02-14T09:40:24.097Z,28.55
2023-02-14T09:43:46.651Z,29.92
2023-02-14T09:46:16.405Z,29.58
2023-02-14T09:48:47.944Z,30.40
2023-02-14T09:51:25.375Z,30.48
2023-02-14T09:54:02.712Z,29.48
2023-02-14T09:56:57.706Z,30.33
2023-02-14T09:59:50.013Z,29.70
2023-02-14T10:02:49.168Z,30.17
2023-02-14T10:05:38.632Z,30.33
2023-02-14T10:08:25.105Z,29.45
2023-02-14T10:11:10.850Z,30.23
2023-02-14T10:13:48.817Z,28.83
2023-02-14T10:16:36.008Z,30.63
2023-02-14T10:19:26.466Z,30.67
2023-02-14T10:22:00.516Z,29.70
2023-02-14T10:24:37.889Z,29.98
2023-02-14T10:27:31.084Z,30.55
2023-02-14T10:29:59.456Z,29.35
2023-02-14T10:32:43.402Z,31.23
2023-02-14T10:35:24.032Z,30.48
2023-02-14T10:38:06.837Z,29.45
2023-02-14T10:40:49.473Z,29.35
2023-02-14T10:43:49.354Z,29.27
2023-02-14T10:46:24.569Z,29.52
2023-02-14T10:49:27.637Z,29.45
2023-02-14T10:52:16.435Z,30.15
2023-02-14T10:54:58.400Z,29.67
2023-02-14T10:57:35.961Z,28.45
2023-02-14T11:00:30.840Z,29.65
2023-02-14T11:03:01.611Z,30.60
2023-02-14T11:05:37.045Z,28.65
2023-02-14T11:08:23.074Z,29.63
2023-02-14T11:10:50.963Z,30.08
2023-02-14T11:13:35.600Z,29.73
2023-02-14T11:16:11.613Z,30.02
2023-02-14T11:18:41.407Z,29.98
2023-02-14T11:21:24.170Z,29.35
2023-02-14T11:23:52.235Z,28.70
2023-02-14T11:26:31.638Z,30.83
2023-02-14T11:29:12.523Z,29.67
2023-02-14T11:31:42.060Z,30.65
2023-02-14T11:34:37.263Z,31.00
2023-02-14T11:37:25.851Z,29.95
2023-02-14T11:39:59.919Z,30.83
2023-02-14T11:42:43.973Z,30.40
2023-02-14T11:45:37.164Z,32.25
2023-02-14T11:48:20.008Z,28.83
2023-02-14T11:50:58.089Z,29.83
2023-02-14T11:53:29.673Z,30.63
2023-02-14T11:56:00.794Z,31.10
2023-02-14T11:58:34.560Z,30.08
2023-02-14T12:01:03.140Z,30.52
2023-02-14T12:03:45.603Z,31.75
2023-02-14T12:06:28.236Z,29.67
2023-02-14T12:09:11.418Z,29.98
2023-02-14T12:11:39.530Z,30.17
2023-02-14T12:14:22.094Z,30.70
2023-02-14T12:17:10.308Z,30.98
2023-02-14T12:19:54.600Z,30.15
2023-02-14T12:22:42.619Z,30.33
2023-02-14T12:25:24.315Z,31.52
2023-02-14T12:28:05.484Z,32.42
2023-02-14T12:30:34.779Z,31.63
2023-02-14T12:33:02.644Z,29.70
2023-02-14T12:35:47.232Z,30.60
2023-02-14T12:38:55.012Z,30.50
2023-02-14T12:42:16.054Z,32.03
2023-02-14T12:45:04.955Z,29.92
2023-02-14T12:47:47.054Z,30.80
2023-02-14T12:50:29.779Z,30.92
2023-02-14T12:53:42.850Z,31.90
2023-02-14T12:56:46.509Z,30.33
2023-02-14T13:00:15.098Z,31.27
2023-02-14T13:02:58.320Z,30.95
2023-02-14T13:05:42.088Z,31.73
2023-02-14T13:08:36.761Z,32.05
2023-02-14T13:12:00.450Z,32.33
2023-02-14T13:14:40.729Z,30.70
2023-02-14T13:17:17.357Z,29.73
2023-02-14T13:19:54.767Z,30.42
2023-02-14T13:22:25.693Z,29.85
2023-02-14T13:25:00.168Z,30.35
2023-02-14T13:27:32.905Z,29.92
2023-02-14T13:30:18.643Z,29.95
2023-02-14T13:32:48.578Z,29.65
2023-02-14T13:35:18.913Z,30.48
2023-02-14T13:37:53.532Z,28.92
2023-02-14T13:40:24.137Z,29.35
2023-02-14T13:42:59.467Z,28.42
2023-02-14T13:45:30.546Z,29.45
2023-02-14T13:48:22.941Z,29.92
2023-02-14T13:51:19.216Z,30.70
2023-02-14T13:53:48.734Z,29.10
2023-02-14T13:56:16.342Z,30.98
2023-02-14T13:58:55.197Z,30.30
2023-02-14T14:01:35.793Z,30.38
2023-02-14T14:04:26.100Z,29.48
2023-02-14T14:07:03.025Z,30.48
2023-02-14T14:09:42.785Z,29.20
2023-02-14T14:12:28.948Z,29.88
2023-02-14T14:17:35.335Z,29.63
2023-02-14T14:20:16.548Z,29.90
2023-02-14T14:22:58.302Z,29.17
2023-02-14T14:25:32.910Z,29.02
2023-02-14T14:28:01.289Z,29.58
2023-02-14T14:30:33.563Z,29.85
2023-02-14T14:33:16.994Z,30.48
2023-02-14T14:36:10.245Z,30.10
2023-02-14T14:38:53.655Z,29.77
2023-02-14T14:41:29.150Z,27.67
2023-02-14T14:43:58.658Z,28.60
2023-02-14T14:46:26.497Z,29.27
2023-02-14T14:48:56.496Z,27.67
2023-02-14T14:51:33.600Z,29.42
2023-02-14T14:54:08.227Z,29.17
2023-02-14T14:56:44.783Z,29.98
2023-02-14T14:59:35.571Z,27.27
2023-02-14T15:02:07.125Z,29.30
2023-02-14T15:04:36.035Z,31.73
2023-02-14T15:07:49.000Z,31.05
2023-02-14T15:10:28.945Z,28.77
2023-02-14T15:13:18.030Z,28.23
2023-02-14T15:15:51.371Z,30.92
2023-02-14T15:18:20.748Z,31.20
2023-02-14T15:20:53.049Z,29.27
2023-02-14T15:23:24.586Z,26.50
2023-02-14T15:25:52.736Z,31.15
2023-02-14T15:28:35.496Z,28.83
2023-02-14T15:31:06.334Z,29.38
2023-02-14T15:33:35.145Z,29.55
2023-02-14T15:36:08.318Z,31.13
2023-02-14T15:38:40.028Z,28.38
2023-02-14T15:41:08.501Z,30.23
2023-02-14T15:43:40.900Z,29.52
2023-02-14T15:46:34.488Z,29.33
2023-02-14T15:49:11.235Z,29.88
2023-02-14T15:51:40.045Z,28.90
2023-02-14T15:54:20.176Z,28.73
2023-02-14T15:56:52.695Z,28.42
2023-02-14T15:59:25.884Z,29.83
2023-02-14T16:01:57.138Z,29.00
2023-02-14T16:04:28.708Z,29.85
2023-02-14T16:07:29.821Z,28.73
2023-02-14T16:10:36.256Z,29.65
2023-02-14T16:13:12.750Z,29.67
2023-02-14T16:16:00.094Z,30.55
2023-02-14T16:18:47.936Z,31.20
2023-02-14T16:21:20.331Z,29.73
2023-02-14T16:24:07.605Z,29.25
2023-02-14T16:26:40.692Z,31.52
2023-02-14T16:29:12.037Z,30.25
2023-02-14T16:32:06.146Z,30.60
2023-02-14T16:34:34.298Z,29.42
2023-02-14T16:37:30.785Z,30.25
2023-02-14T16:40:01.152Z,31.25
2023-02-14T16:42:29.353Z,30.20
2023-02-14T16:44:58.073Z,30.58
2023-02-14T16:47:27.927Z,30.45
2023-02-14T16:49:55.735Z,30.35
2023-02-14T16:52:26.811Z,31.48
2023-02-14T16:54:54.606Z,31.05
2023-02-14T16:57:33.330Z,29.92
2023-02-14T17:00:01.131Z,29.50
2023-02-14T17:02:30.500Z,30.13
2023-02-14T17:04:58.266Z,28.05
2023-02-14T17:07:29.570Z,29.08
2023-02-14T17:10:04.070Z,32.50
2023-02-14T17:12:37.030Z,31.90
2023-02-14T17:15:12.630Z,31.10
2023-02-14T17:17:40.592Z,31.13
2023-02-14T17:20:09.127Z,30.02
2023-02-14T17:22:39.698Z,29.42
2023-02-14T17:25:07.531Z,30.45
2023-02-14T17:27:35.498Z,30.52
2023-02-14T17:30:04.195Z,31.48
2023-02-14T17:32:31.945Z,30.48
2023-02-14T17:35:01.105Z,31.88
2023-02-14T17:37:29.502Z,31.45
2023-02-14T17:39:57.212Z,32.95
2023-02-14T17:42:24.817Z,35.33
2023-02-14T17:44:52.582Z,32.40
2023-02-14T17:47:20.382Z,29.15
2023-02-14T17:49:48.095Z,28.55
2023-02-14T17:52:16.345Z,25.92
2023-02-14T17:54:44.421Z,29.00
2023-02-14T17:57:12.800Z,26.95
2023-02-14T17:59:40.518Z,29.35
2023-02-14T18:02:09.550Z,28.70
2023-02-14T18:04:37.464Z,28.08
2023-02-14T18:07:05.988Z,28.02
2023-02-14T18:09:33.749Z,30.13
2023-02-14T18:12:01.413Z,32.65
2023-02-14T18:14:29.079Z,31.45
2023-02-14T18:16:56.863Z,30.25
2023-02-14T18:19:24.724Z,28.67
2023-02-14T18:21:53.529Z,26.75
2023-02-14T18:24:21.441Z,29.02
2023-02-14T18:26:49.197Z,28.88
2023-02-14T18:29:17.232Z,27.67
2023-02-14T18:31:45.139Z,27.20
2023-02-14T18:34:13.206Z,28.38
2023-02-14T18:36:42.049Z,30.80
2023-02-14T18:39:10.586Z,30.65
2023-02-14T18:41:38.418Z,31.15
2023-02-14T18:44:07.037Z,30.35
2023-02-14T18:46:36.105Z,28.05
2023-02-14T18:49:07.033Z,30.48
2023-02-14T18:51:39.437Z,29.80
2023-02-14T18:54:08.025Z,29.73
2023-02-14T18:56:38.296Z,29.77
2023-02-14T18:59:09.134Z,25.38
2023-02-14T19:01:42.102Z,31.35
2023-02-14T19:04:12.317Z,28.70
2023-02-14T19:06:42.219Z,26.85
2023-02-14T19:09:13.377Z,27.17
2023-02-14T19:11:41.902Z,27.63
2023-02-14T19:14:10.723Z,25.13
2023-02-14T19:16:44.089Z,25.48
2023-02-14T19:19:12.071Z,26.45
2023-02-14T19:21:40.512Z,27.90
2023-02-14T19:24:08.403Z,28.10
2023-02-14T19:26:41.020Z,25.67
2023-02-14T19:29:15.666Z,26.42
2023-02-14T19:31:54.940Z,29.02
2023-02-14T19:34:29.175Z,29.35
2023-02-14T19:37:00.528Z,28.70
2023-02-14T19:39:31.805Z,29.42
2023-02-14T19:42:00.190Z,28.80
2023-02-14T19:44:29.476Z,28.73
2023-02-14T19:47:00.030Z,28.17
2023-02-14T19:49:29.102Z,28.95
2023-02-14T19:51:57.611Z,27.25
2023-02-14T19:54:25.796Z,29.00
2023-02-14T19:56:55.430Z,26.42
2023-02-14T19:59:23.306Z,29.02
2023-02-14T20:01:53.772Z,31.05
2023-02-14T20:04:25.025Z,31.30
2023-02-14T20:06:54.854Z,31.30
2023-02-14T20:09:23.735Z,34.42
2023-02-14T20:11:57.059Z,32.47
2023-02-14T20:14:28.980Z,34.22
2023-02-14T20:17:07.582Z,34.20
2023-02-14T20:19:37.084Z,35.22
2023-02-14T20:22:05.017Z,33.22
2023-02-14T20:24:32.757Z,31.02
2023-02-14T20:27:00.608Z,31.15
2023-02-14T20:29:28.735Z,28.90
2023-02-14T20:32:00.039Z,31.48
2023-02-14T20:34:28.283Z,30.95
2023-02-14T20:36:56.348Z,32.10
2023-02-14T20:39:33.235Z,33.20
2023-02-14T20:42:02.559Z,35.08
2023-02-14T20:44:31.104Z,30.27
2023-02-14T20:46:58.804Z,30.02
2023-02-14T20:49:28.345Z,33.15
2023-02-14T20:51:56.914Z,36.30
2023-02-14T20:54:27.289Z,33.72
2023-02-14T20:56:55.944Z,34.70
2023-02-14T20:59:28.247Z,30.70
2023-02-14T21:01:59.550Z,30.70
2023-02-14T21:04:28.831Z,29.17
2023-02-14T21:06:57.854Z,27.02
2023-02-14T21:09:25.613Z,26.42
2023-02-14T21:11:54.025Z,26.67
2023-02-14T21:14:21.881Z,26.15
2023-02-14T21:16:49.607Z,24.73
2023-02-14T21:19:17.683Z,25.92
2023-02-14T21:21:45.717Z,25.88
2023-02-14T21:24:15.718Z,27.98
2023-02-14T21:26:43.935Z,28.17
2023-02-14T21:29:11.897Z,27.20
2023-02-14T21:31:39.799Z,27.83
2023-02-14T21:34:07.596Z,27.92
2023-02-14T21:36:36.032Z,27.17
2023-02-14T21:39:05.974Z,26.05
2023-02-14T21:41:35.644Z,25.52
2023-02-14T21:44:04.885Z,26.50
2023-02-14T21:46:38.384Z,26.42
2023-02-14T21:49:25.535Z,26.02
2023-02-14T21:51:53.327Z,25.95
2023-02-14T21:54:20.950Z,27.77
2023-02-14T21:56:49.906Z,28.00
2023-02-14T21:59:17.900Z,27.83
2023-02-14T22:01:45.929Z,27.08
2023-02-14T22:04:13.775Z,28.33
2023-02-14T22:06:43.016Z,26.83
2023-02-14T22:09:14.144Z,25.80
2023-02-14T22:11:42.075Z,27.20
2023-02-14T22:14:09.993Z,26.70
2023-02-14T22:16:38.181Z,28.45
2023-02-14T22:19:08.160Z,25.70
2023-02-14T22:21:36.214Z,26.23
2023-02-14T22:24:04.212Z,26.48
2023-02-14T22:26:40.995Z,25.05
2023-02-14T22:29:12.630Z,23.80
2023-02-14T22:31:44.355Z,23.77
2023-02-14T22:34:14.891Z,22.38
2023-02-14T22:36:42.686Z,22.30
2023-02-14T22:39:15.943Z,23.80
2023-02-14T22:41:44.622Z,29.17
2023-02-14T22:44:13.624Z,28.35
2023-02-14T22:46:42.091Z,24.85
2023-02-14T22:49:09.774Z,32.03
2023-02-14T22:51:42.853Z,27.75
2023-02-14T22:54:14.291Z,28.88
2023-02-14T22:56:45.598Z,29.10
2023-02-14T22:59:23.867Z,34.35
2023-02-14T23:01:53.525Z,30.20
2023-02-14T23:04:24.965Z,32.40
2023-02-14T23:06:53.664Z,34.38
2023-02-14T23:09:23.392Z,34.42
2023-02-14T23:11:52.015Z,40.80
2023-02-14T23:14:38.554Z,36.50
2023-02-14T23:17:18.656Z,40.22
2023-02-14T23:20:05.121Z,35.85
2023-02-14T23:22:35.549Z,33.13
2023-02-14T23:25:10.766Z,32.42
2023-02-14T23:27:41.282Z,29.00
2023-02-14T23:30:13.498Z,26.15
2023-02-14T23:32:41.458Z,25.33
2023-02-14T23:35:09.760Z,26.10
2023-02-14T23:37:37.576Z,28.13
2023-02-14T23:40:06.744Z,27.50
2023-02-14T23:42:34.502Z,26.17
2023-02-14T23:45:21.166Z,25.80
2023-02-14T23:47:49.025Z,27.20
2023-02-14T23:50:16.790Z,27.83
2023-02-14T23:52:44.747Z,27.17
2023-02-14T23:55:13.095Z,26.80
2023-02-14T23:57:40.873Z,24.45
